Time;durP1;ratioP1;P1;durP2;ratioP2;P2;SDS_P1;SDS_P2;PMS_P1;PMS_P2;Temp;Humidity;BMP_temperature;BMP_pressure;BME280_temperature;BME280_humidity;BME280_pressure;Samples;Min_cycle;Max_cycle;Signal;HPM_P1;HPM_P2
2022/09/27 00:01:24;;;;;;;1.43;1.27;;;9.70;99.90;;;;;;5050171;28;20179;-62
2022/09/27 00:03:54;;;;;;;2.90;1.30;;;9.70;99.90;;;;;;5049417;28;20256;-62
2022/09/27 00:06:24;;;;;;;4.03;1.33;;;9.60;99.90;;;;;;5051630;28;20638;-63
2022/09/27 00:08:49;;;;;;;1.40;1.30;;;9.60;99.90;;;;;;5038455;28;20438;-62
2022/09/27 00:11:34;;;;;;;4.17;1.40;;;9.60;99.90;;;;;;5050382;28;20406;-62
2022/09/27 00:14:00;;;;;;;1.30;1.20;;;9.60;99.90;;;;;;5040564;28;20258;-63
2022/09/27 00:16:31;;;;;;;3.80;1.37;;;9.60;99.90;;;;;;5043003;28;20790;-62
2022/09/27 00:19:02;;;;;;;1.10;1.00;;;9.60;99.90;;;;;;5050963;28;20446;-62
2022/09/27 00:21:29;;;;;;;1.10;1.10;;;9.60;99.90;;;;;;5052347;28;20406;-63
2022/09/27 00:23:56;;;;;;;1.67;1.20;;;9.60;99.90;;;;;;5030987;28;20582;-62
2022/09/27 00:26:21;;;;;;;3.00;1.40;;;9.60;99.90;;;;;;5051479;28;20417;-62
2022/09/27 00:28:47;;;;;;;1.40;1.30;;;9.60;99.90;;;;;;5046592;28;21033;-62
2022/09/27 00:31:22;;;;;;;1.20;1.10;;;9.60;99.90;;;;;;5053397;28;20288;-62
2022/09/27 00:33:49;;;;;;;3.20;1.40;;;9.60;99.90;;;;;;5028777;28;20520;-63
2022/09/27 00:36:16;;;;;;;1.40;1.30;;;9.50;99.90;;;;;;5051097;28;20414;-62
2022/09/27 00:38:42;;;;;;;1.40;1.30;;;9.50;99.90;;;;;;5049405;28;20816;-62
2022/09/27 00:41:29;;;;;;;1.70;1.60;;;9.50;99.90;;;;;;5032207;28;20434;-62
2022/09/27 00:43:57;;;;;;;1.50;1.40;;;9.50;99.90;;;;;;5045991;28;21180;-62
2022/09/27 00:46:45;;;;;;;1.47;1.37;;;9.50;99.90;;;;;;5039620;28;20406;-62
2022/09/27 00:49:40;;;;;;;7.00;1.70;;;9.50;99.90;;;;;;5048035;28;20445;-62
2022/09/27 00:52:16;;;;;;;1.40;1.30;;;9.50;99.90;;;;;;5038288;28;21005;-61
2022/09/27 00:54:46;;;;;;;2.27;1.60;;;9.50;99.90;;;;;;5051896;28;20409;-62
2022/09/27 00:57:11;;;;;;;1.73;1.63;;;9.50;99.90;;;;;;5049588;28;20437;-63
2022/09/27 00:59:50;;;;;;;4.93;1.47;;;9.50;99.90;;;;;;5048348;28;20534;-62
2022/09/27 01:02:16;;;;;;;4.50;1.37;;;9.50;99.90;;;;;;5047007;28;20210;-63
2022/09/27 01:04:42;;;;;;;1.10;1.10;;;9.50;99.90;;;;;;5037934;28;20431;-62
2022/09/27 01:07:08;;;;;;;1.17;1.17;;;9.50;99.90;;;;;;5018685;28;20485;-63
2022/09/27 01:09:34;;;;;;;1.50;1.30;;;9.50;99.90;;;;;;5045703;28;20481;-62
2022/09/27 01:12:19;;;;;;;1.63;1.53;;;9.50;99.90;;;;;;5047228;28;20205;-62
2022/09/27 01:15:02;;;;;;;1.50;1.40;;;9.50;99.90;;;;;;5042544;28;20177;-62
2022/09/27 01:18:02;;;;;;;2.53;1.27;;;9.50;99.90;;;;;;5050809;28;20782;-62
2022/09/27 01:21:05;;;;;;;2.57;1.40;;;9.50;99.90;;;;;;5034099;28;20579;-62
2022/09/27 01:23:51;;;;;;;2.40;2.20;;;9.50;99.90;;;;;;5042039;28;20433;-62
2022/09/27 01:26:19;;;;;;;1.40;1.30;;;9.50;99.90;;;;;;5043559;28;20434;-62
2022/09/27 01:28:56;;;;;;;1.30;1.20;;;9.50;99.90;;;;;;5048571;28;21192;-62
2022/09/27 01:31:31;;;;;;;1.40;1.30;;;9.50;99.90;;;;;;5044931;28;20433;-62
2022/09/27 01:34:12;;;;;;;1.33;1.23;;;9.40;99.90;;;;;;5035695;28;20453;-61
2022/09/27 01:37:05;;;;;;;1.37;1.27;;;9.40;99.90;;;;;;5045751;28;20954;-62
2022/09/27 01:39:50;;;;;;;3.00;1.30;;;9.40;99.90;;;;;;5050578;28;20425;-62
2022/09/27 01:42:36;;;;;;;1.30;1.20;;;9.40;99.90;;;;;;5034158;28;20435;-62
2022/09/27 01:45:35;;;;;;;1.37;1.27;;;9.40;99.90;;;;;;5041925;28;20426;-63
2022/09/27 01:48:08;;;;;;;2.30;1.47;;;9.40;99.90;;;;;;5044262;28;20465;-62
2022/09/27 01:50:44;;;;;;;1.40;1.30;;;9.40;99.90;;;;;;5042523;28;20472;-63
2022/09/27 01:53:40;;;;;;;1.10;1.00;;;9.40;99.90;;;;;;5048049;28;20429;-63
2022/09/27 01:56:11;;;;;;;1.43;1.30;;;9.30;99.90;;;;;;5049116;28;20445;-63
2022/09/27 01:58:42;;;;;;;1.20;1.10;;;9.30;99.90;;;;;;5047947;28;20899;-62
2022/09/27 02:01:11;;;;;;;1.20;1.10;;;9.30;99.90;;;;;;5048339;28;20446;-62
2022/09/27 02:03:42;;;;;;;4.73;1.10;;;9.30;99.90;;;;;;5046940;28;20434;-63
2022/09/27 02:06:29;;;;;;;2.10;1.20;;;9.30;99.90;;;;;;5048138;28;20448;-63
2022/09/27 02:09:27;;;;;;;3.03;1.00;;;9.30;99.90;;;;;;5045762;28;20441;-63
2022/09/27 02:11:57;;;;;;;1.30;1.20;;;9.30;99.90;;;;;;5020554;28;20442;-63
2022/09/27 02:14:32;;;;;;;1.30;1.20;;;9.30;99.90;;;;;;5044766;28;21077;-62
2022/09/27 02:17:16;;;;;;;2.93;1.13;;;9.30;99.90;;;;;;5027693;28;20478;-62
2022/09/27 02:20:05;;;;;;;1.20;1.10;;;9.30;99.90;;;;;;5049547;28;20449;-62
2022/09/27 02:22:49;;;;;;;0.90;0.90;;;9.40;99.90;;;;;;5042929;28;20429;-63
2022/09/27 02:25:20;;;;;;;1.00;1.00;;;9.30;99.90;;;;;;5052815;28;20440;-63
2022/09/27 02:27:51;;;;;;;1.10;0.87;;;9.30;99.90;;;;;;5041556;28;20815;-63
2022/09/27 02:30:18;;;;;;;0.90;0.90;;;9.30;99.90;;;;;;5049000;28;20449;-61
2022/09/27 02:32:44;;;;;;;0.90;0.90;;;9.30;99.90;;;;;;5026410;28;20518;-63
2022/09/27 02:35:32;;;;;;;2.77;1.10;;;9.30;99.90;;;;;;5036391;28;20484;-63
2022/09/27 02:37:59;;;;;;;0.97;0.97;;;9.30;99.90;;;;;;5050530;28;20167;-62
2022/09/27 02:40:31;;;;;;;1.53;0.87;;;9.30;99.90;;;;;;5050371;28;20436;-63
2022/09/27 02:42:58;;;;;;;0.90;0.90;;;9.30;99.90;;;;;;5044212;28;20430;-63
2022/09/27 02:45:34;;;;;;;0.90;0.90;;;9.30;99.90;;;;;;5050542;28;20970;-62
2022/09/27 02:48:11;;;;;;;1.47;1.23;;;9.40;99.90;;;;;;5047547;28;20507;-63
2022/09/27 02:51:08;;;;;;;0.90;0.90;;;9.40;99.90;;;;;;5021925;28;20875;-63
2022/09/27 02:53:59;;;;;;;0.80;0.80;;;9.30;99.90;;;;;;5045689;28;21018;-62
2022/09/27 02:56:41;;;;;;;1.00;1.00;;;9.30;99.90;;;;;;5047696;28;20441;-62
2022/09/27 02:59:22;;;;;;;0.80;0.80;;;9.30;99.90;;;;;;5033616;28;20538;-62
2022/09/27 03:02:02;;;;;;;2.20;0.90;;;9.30;99.90;;;;;;5042724;28;20431;-62
2022/09/27 03:04:37;;;;;;;0.80;0.80;;;9.30;99.90;;;;;;5044052;28;20441;-62
2022/09/27 03:07:03;;;;;;;0.80;0.80;;;9.20;99.90;;;;;;5036644;28;20448;-63
2022/09/27 03:09:43;;;;;;;0.90;0.90;;;9.20;99.90;;;;;;5029519;28;21065;-62
2022/09/27 03:12:09;;;;;;;0.90;0.90;;;9.20;99.90;;;;;;5045813;28;20444;-62
2022/09/27 03:14:35;;;;;;;0.70;0.70;;;9.30;99.90;;;;;;5049208;28;20438;-63
2022/09/27 03:17:01;;;;;;;1.13;0.80;;;9.20;99.90;;;;;;5040879;28;20430;-62
2022/09/27 03:19:27;;;;;;;1.17;0.90;;;9.20;99.90;;;;;;5046706;28;20217;-62
2022/09/27 03:21:52;;;;;;;2.13;1.00;;;9.20;99.90;;;;;;5042183;28;20190;-62
2022/09/27 03:24:18;;;;;;;2.40;1.17;;;9.20;99.90;;;;;;5035850;28;20955;-62
2022/09/27 03:26:44;;;;;;;1.10;1.00;;;9.20;99.90;;;;;;5044624;28;20206;-63
2022/09/27 03:29:10;;;;;;;1.80;0.80;;;9.20;99.90;;;;;;5045874;28;20203;-63
2022/09/27 03:31:35;;;;;;;2.10;0.83;;;9.20;99.90;;;;;;5046596;28;20650;-63
2022/09/27 03:34:01;;;;;;;0.90;0.90;;;9.20;99.90;;;;;;5040187;28;20517;-61
2022/09/27 03:36:27;;;;;;;1.13;1.07;;;9.20;99.90;;;;;;5047137;28;20676;-60
2022/09/27 03:38:53;;;;;;;1.30;1.00;;;9.20;99.90;;;;;;5048368;28;20248;-62
2022/09/27 03:41:19;;;;;;;1.10;1.00;;;9.10;99.90;;;;;;5047279;28;20441;-61
2022/09/27 03:43:44;;;;;;;2.23;1.40;;;9.10;99.90;;;;;;5051599;28;20179;-61
2022/09/27 03:46:10;;;;;;;1.87;0.90;;;9.10;99.90;;;;;;5049376;28;20180;-62
2022/09/27 03:48:36;;;;;;;1.20;1.10;;;9.10;99.90;;;;;;5051465;28;20202;-62
2022/09/27 03:51:03;;;;;;;1.33;1.07;;;9.00;99.90;;;;;;5051352;28;20433;-61
2022/09/27 03:53:29;;;;;;;4.40;1.03;;;9.00;99.90;;;;;;5047183;28;20183;-62
2022/09/27 03:55:55;;;;;;;3.07;1.10;;;9.00;99.90;;;;;;5028692;28;20441;-59
2022/09/27 03:58:20;;;;;;;1.10;1.00;;;9.00;99.90;;;;;;5037419;28;20442;-59
2022/09/27 04:00:46;;;;;;;3.30;1.30;;;9.00;99.90;;;;;;5047566;28;20195;-59
2022/09/27 04:03:12;;;;;;;1.00;1.00;;;8.90;99.90;;;;;;5046563;28;20194;-60
2022/09/27 04:05:38;;;;;;;1.20;1.10;;;8.90;99.90;;;;;;5042934;28;20528;-61
2022/09/27 04:08:05;;;;;;;1.10;1.00;;;8.90;99.90;;;;;;5039951;28;20506;-62
2022/09/27 04:10:31;;;;;;;2.97;1.60;;;8.90;99.90;;;;;;5042650;28;20460;-61
2022/09/27 04:12:57;;;;;;;3.00;1.13;;;8.90;99.90;;;;;;5040485;28;20429;-62
2022/09/27 04:15:22;;;;;;;1.97;1.23;;;8.90;99.90;;;;;;5039904;28;20494;-60
2022/09/27 04:17:49;;;;;;;1.30;1.20;;;8.90;99.90;;;;;;5043444;28;20550;-60
2022/09/27 04:20:15;;;;;;;1.53;1.27;;;8.90;99.90;;;;;;5040904;28;20239;-59
2022/09/27 04:22:42;;;;;;;1.47;1.20;;;8.90;99.90;;;;;;5038379;28;20457;-59
2022/09/27 04:25:09;;;;;;;1.60;1.50;;;8.90;99.90;;;;;;5041256;28;20262;-62
2022/09/27 04:27:35;;;;;;;1.77;1.50;;;8.90;99.90;;;;;;5040209;28;20990;-60
2022/09/27 04:30:00;;;;;;;2.33;1.43;;;8.90;99.90;;;;;;5042345;28;20496;-60
2022/09/27 04:32:26;;;;;;;2.70;0.73;;;8.90;99.90;;;;;;5036000;28;20183;-60
2022/09/27 04:37:37;;;;;;;1.33;1.23;;;8.90;99.90;;;;;;5035589;28;20275;-61
2022/09/27 04:40:03;;;;;;;1.93;1.20;;;8.90;99.90;;;;;;5036622;28;20464;-60
2022/09/27 04:42:29;;;;;;;3.47;1.13;;;8.90;99.90;;;;;;5041778;28;20429;-60
2022/09/27 04:44:54;;;;;;;4.30;1.50;;;8.90;99.90;;;;;;5045228;28;20490;-60
2022/09/27 04:47:20;;;;;;;1.30;1.03;;;8.80;99.90;;;;;;5045689;28;20249;-60
2022/09/27 04:49:47;;;;;;;1.40;1.20;;;8.80;99.90;;;;;;5028505;28;20187;-60
2022/09/27 04:52:14;;;;;;;0.93;0.93;;;8.80;99.90;;;;;;5026151;28;20226;-61
2022/09/27 04:54:40;;;;;;;1.17;1.07;;;8.80;99.90;;;;;;5041051;28;20517;-59
2022/09/27 04:57:06;;;;;;;1.93;1.50;;;8.80;99.90;;;;;;5036506;28;20459;-59
2022/09/27 04:59:31;;;;;;;0.90;0.90;;;8.80;99.90;;;;;;5048334;28;20507;-59
2022/09/27 05:02:00;;;;;;;1.70;0.97;;;8.70;99.90;;;;;;5050107;28;20179;-59
2022/09/27 05:04:26;;;;;;;2.03;1.10;;;8.70;99.90;;;;;;5041803;28;20186;-59
2022/09/27 05:06:52;;;;;;;1.10;1.00;;;8.70;99.90;;;;;;5041761;28;20458;-61
2022/09/27 05:09:18;;;;;;;6.10;1.67;;;8.70;99.90;;;;;;5033790;28;20518;-58
2022/09/27 05:11:44;;;;;;;1.30;1.20;;;8.70;99.90;;;;;;5050682;28;20504;-59
2022/09/27 05:14:10;;;;;;;1.20;1.10;;;8.70;99.90;;;;;;5049951;28;20467;-59
2022/09/27 05:16:36;;;;;;;1.53;1.40;;;8.70;99.90;;;;;;5045956;28;20755;-59
2022/09/27 05:19:02;;;;;;;1.50;1.40;;;8.60;99.90;;;;;;5045084;28;21035;-58
2022/09/27 05:21:28;;;;;;;1.43;1.03;;;8.60;99.90;;;;;;5047975;28;20198;-59
2022/09/27 05:23:54;;;;;;;4.17;1.20;;;8.60;99.90;;;;;;5045555;28;20469;-58
2022/09/27 05:26:19;;;;;;;2.70;1.03;;;8.60;99.90;;;;;;5043553;28;20171;-60
2022/09/27 05:28:46;;;;;;;2.53;0.93;;;8.60;99.90;;;;;;5048639;28;20207;-59
2022/09/27 05:31:13;;;;;;;1.70;1.00;;;8.60;99.90;;;;;;5049719;28;20612;-59
2022/09/27 05:33:39;;;;;;;1.20;1.10;;;8.60;99.90;;;;;;5036277;28;20484;-59
2022/09/27 05:36:05;;;;;;;2.00;1.27;;;8.50;99.90;;;;;;5038885;28;21002;-59
2022/09/27 05:38:31;;;;;;;2.10;1.00;;;8.50;99.90;;;;;;5048734;28;20506;-59
2022/09/27 05:40:57;;;;;;;1.57;1.20;;;8.50;99.90;;;;;;5049022;28;20534;-59
2022/09/27 05:43:23;;;;;;;1.30;1.20;;;8.60;99.90;;;;;;5039041;28;20561;-59
2022/09/27 05:45:51;;;;;;;1.50;1.40;;;8.50;99.90;;;;;;5049984;28;20437;-59
2022/09/27 05:48:18;;;;;;;0.70;0.70;;;8.50;99.90;;;;;;5046242;28;20847;-58
2022/09/27 05:50:43;;;;;;;1.80;0.90;;;8.50;99.90;;;;;;5037465;28;20461;-58
2022/09/27 05:53:10;;;;;;;1.00;0.90;;;8.40;99.90;;;;;;5058624;28;20402;-59
2022/09/27 05:55:36;;;;;;;3.90;1.10;;;8.40;99.90;;;;;;5048816;28;20434;-59
2022/09/27 05:58:04;;;;;;;0.90;0.90;;;8.30;99.90;;;;;;5041508;28;20941;-59
2022/09/27 06:00:31;;;;;;;0.90;0.90;;;8.30;99.90;;;;;;5048214;28;20532;-59
2022/09/27 06:02:59;;;;;;;0.90;0.90;;;8.30;99.90;;;;;;5043531;28;20426;-59
2022/09/27 06:05:27;;;;;;;1.00;0.90;;;8.30;99.90;;;;;;5047549;28;20446;-61
2022/09/27 06:08:02;;;;;;;1.60;1.03;;;8.30;99.90;;;;;;5050367;28;20457;-59
2022/09/27 06:10:30;;;;;;;2.20;1.70;;;8.30;99.90;;;;;;5043054;28;20519;-59
2022/09/27 06:13:01;;;;;;;2.10;1.20;;;8.30;99.90;;;;;;5042543;28;20430;-59
2022/09/27 06:15:28;;;;;;;1.20;0.90;;;8.30;99.90;;;;;;5039314;28;20892;-59
2022/09/27 06:17:54;;;;;;;1.23;0.80;;;8.30;99.90;;;;;;5049189;28;20453;-59
2022/09/27 06:20:20;;;;;;;1.20;1.10;;;8.30;99.90;;;;;;5048303;28;20967;-59
2022/09/27 06:22:46;;;;;;;1.40;1.10;;;8.40;99.90;;;;;;5049334;28;20429;-59
2022/09/27 06:25:12;;;;;;;1.53;1.13;;;8.40;99.90;;;;;;5029109;28;20516;-59
2022/09/27 06:27:37;;;;;;;1.03;0.93;;;8.40;99.90;;;;;;5039804;28;20225;-59
2022/09/27 06:30:06;;;;;;;1.10;1.00;;;8.50;99.90;;;;;;5047554;28;20203;-59
2022/09/27 06:32:32;;;;;;;2.30;0.90;;;8.50;99.90;;;;;;5044993;28;20178;-59
2022/09/27 06:34:57;;;;;;;1.20;1.00;;;8.60;99.90;;;;;;5030609;28;20402;-59
2022/09/27 06:37:26;;;;;;;1.10;0.90;;;8.60;99.90;;;;;;5032769;28;20183;-59
2022/09/27 06:39:55;;;;;;;4.70;1.10;;;8.70;99.90;;;;;;5048409;28;20249;-60
2022/09/27 06:42:21;;;;;;;1.00;0.90;;;8.70;99.90;;;;;;5039103;28;20520;-59
2022/09/27 06:44:48;;;;;;;1.40;0.90;;;8.60;99.90;;;;;;5047500;28;20537;-58
2022/09/27 06:47:18;;;;;;;1.30;1.20;;;8.60;99.90;;;;;;5048622;28;20647;-59
2022/09/27 06:49:43;;;;;;;1.60;1.50;;;8.70;99.90;;;;;;5034723;28;20445;-59
2022/09/27 06:52:10;;;;;;;1.40;1.30;;;8.70;99.90;;;;;;5042083;28;20445;-59
2022/09/27 06:54:35;;;;;;;2.30;1.10;;;8.70;99.90;;;;;;5042222;28;20229;-59
2022/09/27 06:57:01;;;;;;;2.10;1.10;;;8.70;99.90;;;;;;5048598;28;20473;-59
2022/09/27 07:02:12;;;;;;;3.17;1.40;;;8.70;99.90;;;;;;5044149;28;20182;-59
2022/09/27 07:04:38;;;;;;;4.83;1.23;;;8.70;99.90;;;;;;5047505;28;20475;-59
2022/09/27 07:07:05;;;;;;;3.80;1.00;;;8.70;99.90;;;;;;5041240;28;21008;-59
2022/09/27 07:09:30;;;;;;;1.20;1.00;;;8.70;99.90;;;;;;5049658;28;20190;-59
2022/09/27 07:11:56;;;;;;;3.63;1.20;;;8.70;99.90;;;;;;5044950;28;20430;-59
2022/09/27 07:14:22;;;;;;;2.70;1.70;;;8.70;99.90;;;;;;5043353;28;20172;-59
2022/09/27 07:16:47;;;;;;;2.60;1.23;;;8.70;99.90;;;;;;5042857;28;20182;-61
2022/09/27 07:19:14;;;;;;;3.80;1.97;;;8.70;99.90;;;;;;5052507;28;20457;-59
2022/09/27 07:21:40;;;;;;;1.20;1.10;;;8.80;99.90;;;;;;5051569;28;20179;-59
2022/09/27 07:24:05;;;;;;;1.70;1.60;;;8.80;99.90;;;;;;5034653;28;20440;-59
2022/09/27 07:26:31;;;;;;;1.90;1.40;;;8.80;99.90;;;;;;5045460;28;20528;-59
2022/09/27 07:28:56;;;;;;;1.70;1.60;;;8.80;99.90;;;;;;5048564;28;20199;-61
2022/09/27 07:31:23;;;;;;;3.03;1.70;;;8.90;99.90;;;;;;5047825;28;20233;-59
2022/09/27 07:33:49;;;;;;;1.50;1.40;;;8.90;99.90;;;;;;5050814;28;20171;-59
2022/09/27 07:36:15;;;;;;;1.33;1.23;;;8.90;99.90;;;;;;5051197;28;20429;-61
2022/09/27 07:38:41;;;;;;;0.90;0.90;;;8.90;99.90;;;;;;5057828;28;20912;-61
2022/09/27 07:41:14;;;;;;;1.03;0.93;;;8.90;99.90;;;;;;5052845;28;20167;-59
2022/09/27 07:43:43;;;;;;;1.50;1.10;;;8.80;99.90;;;;;;5033093;28;20433;-59
2022/09/27 07:46:10;;;;;;;3.03;1.00;;;8.80;99.90;;;;;;5051888;28;20433;-59
2022/09/27 07:48:35;;;;;;;1.20;1.10;;;8.90;99.90;;;;;;5052037;28;20540;-59
2022/09/27 07:51:01;;;;;;;1.20;1.13;;;9.00;99.90;;;;;;5052725;28;20521;-59
2022/09/27 07:53:27;;;;;;;1.10;1.10;;;9.00;99.90;;;;;;5029451;28;20653;-59
2022/09/27 07:55:53;;;;;;;1.57;1.17;;;9.00;99.90;;;;;;5035548;28;20234;-59
2022/09/27 07:58:19;;;;;;;4.63;1.33;;;9.00;99.90;;;;;;5048511;28;20715;-58
2022/09/27 08:00:45;;;;;;;1.53;1.27;;;8.90;99.90;;;;;;5050585;28;21006;-59
2022/09/27 08:03:16;;;;;;;1.10;1.00;;;8.90;99.90;;;;;;5026179;28;20466;-60
2022/09/27 08:05:46;;;;;;;1.13;1.03;;;8.80;99.90;;;;;;5050005;28;20172;-59
2022/09/27 08:08:12;;;;;;;2.40;1.10;;;8.80;99.90;;;;;;5049226;28;20552;-59
2022/09/27 08:10:43;;;;;;;1.50;1.03;;;8.80;99.90;;;;;;5050529;28;20461;-59
2022/09/27 08:13:09;;;;;;;1.00;1.00;;;8.80;99.90;;;;;;5042027;28;20526;-59
2022/09/27 08:15:37;;;;;;;1.17;1.07;;;8.80;99.90;;;;;;5035345;28;20430;-60
2022/09/27 08:18:03;;;;;;;2.47;1.00;;;8.90;99.90;;;;;;5051594;28;20421;-59
2022/09/27 08:20:28;;;;;;;3.07;1.20;;;8.90;99.90;;;;;;5049696;28;20489;-59
2022/09/27 08:22:54;;;;;;;1.00;1.00;;;8.90;99.90;;;;;;5051475;28;20468;-59
2022/09/27 08:25:23;;;;;;;3.07;1.27;;;9.00;99.90;;;;;;5049935;28;20213;-59
2022/09/27 08:27:59;;;;;;;1.10;1.00;;;9.00;99.90;;;;;;5046909;28;20187;-59
2022/09/27 08:30:26;;;;;;;1.40;1.30;;;9.10;99.90;;;;;;5052449;28;20993;-59
2022/09/27 08:32:56;;;;;;;1.17;1.10;;;9.20;99.90;;;;;;5051148;28;20430;-59
2022/09/27 08:35:22;;;;;;;1.23;1.00;;;9.30;99.90;;;;;;5049772;28;20430;-59
2022/09/27 08:37:59;;;;;;;1.10;1.07;;;9.30;99.90;;;;;;5050852;28;20434;-59
2022/09/27 08:40:33;;;;;;;1.80;1.10;;;9.50;99.90;;;;;;5051647;28;20448;-59
2022/09/27 08:43:09;;;;;;;1.20;1.10;;;9.60;99.90;;;;;;5018581;28;20434;-59
2022/09/27 08:45:44;;;;;;;1.83;1.40;;;9.60;99.90;;;;;;5045097;28;20517;-59
2022/09/27 08:48:11;;;;;;;2.37;1.47;;;9.50;99.90;;;;;;5042144;28;20457;-60
2022/09/27 08:50:41;;;;;;;3.17;1.70;;;9.50;99.90;;;;;;5047483;28;20449;-60
2022/09/27 08:53:13;;;;;;;1.30;1.20;;;9.40;99.90;;;;;;5038983;28;20433;-61
2022/09/27 08:55:49;;;;;;;3.33;1.57;;;9.30;99.90;;;;;;5045584;28;20441;-60
2022/09/27 08:58:27;;;;;;;3.00;1.73;;;9.30;99.90;;;;;;5034109;28;20498;-60
2022/09/27 09:00:56;;;;;;;2.70;1.60;;;9.30;99.90;;;;;;5050422;28;20499;-60
2022/09/27 09:03:26;;;;;;;1.60;1.50;;;9.30;99.90;;;;;;5049263;28;20915;-60
2022/09/27 09:06:00;;;;;;;2.03;1.63;;;9.40;99.90;;;;;;5031763;28;20824;-60
2022/09/27 09:09:29;;;;;;;3.60;1.90;;;9.40;99.90;;;;;;5048954;28;20484;-60
2022/09/27 09:15:13;;;;;;;1.30;1.20;;;9.30;99.90;;;;;;4991803;28;20434;-60
2022/09/27 09:18:08;;;;;;;1.77;1.20;;;9.30;99.90;;;;;;5046492;28;20444;-60
2022/09/27 09:20:41;;;;;;;2.30;1.87;;;9.30;99.90;;;;;;5029055;28;20825;-60
2022/09/27 09:23:10;;;;;;;1.10;1.00;;;9.30;99.90;;;;;;5047776;28;20425;-60
2022/09/27 09:25:57;;;;;;;1.57;1.47;;;9.40;99.90;;;;;;5037200;28;20414;-60
2022/09/27 09:28:41;;;;;;;4.17;1.70;;;9.40;99.90;;;;;;5044410;28;20457;-61
2022/09/27 09:31:37;;;;;;;2.70;1.67;;;9.50;99.90;;;;;;5052371;28;20429;-60
2022/09/27 09:34:19;;;;;;;2.57;1.70;;;9.70;99.90;;;;;;5041816;28;20430;-60
2022/09/27 09:36:55;;;;;;;1.30;1.20;;;9.80;99.90;;;;;;5040686;28;20817;-60
2022/09/27 09:39:44;;;;;;;3.37;1.33;;;9.80;99.90;;;;;;5047972;28;20445;-60
2022/09/27 09:42:12;;;;;;;1.70;1.60;;;9.80;99.90;;;;;;5044561;28;20426;-60
2022/09/27 09:44:52;;;;;;;1.80;1.33;;;9.90;99.90;;;;;;5049320;28;20398;-60
2022/09/27 09:47:28;;;;;;;2.30;1.70;;;9.90;99.90;;;;;;5047020;28;20484;-61
2022/09/27 09:50:00;;;;;;;2.83;1.70;;;9.90;99.90;;;;;;5047368;28;20441;-61
2022/09/27 09:52:41;;;;;;;1.60;1.50;;;9.90;99.90;;;;;;5050313;28;20504;-60
2022/09/27 09:55:17;;;;;;;1.40;1.30;;;9.80;99.90;;;;;;5049230;28;20935;-60
2022/09/27 09:58:22;;;;;;;1.87;1.20;;;9.80;99.90;;;;;;5026244;28;20458;-60
2022/09/27 10:00:52;;;;;;;3.80;1.20;;;9.60;99.90;;;;;;5047507;28;20449;-60
2022/09/27 10:03:19;;;;;;;3.60;1.30;;;9.50;99.90;;;;;;5044606;28;20425;-60
2022/09/27 10:05:45;;;;;;;1.10;1.10;;;9.40;99.90;;;;;;5025280;28;21043;-60
2022/09/27 10:08:20;;;;;;;3.13;1.27;;;9.30;99.90;;;;;;5028537;28;20544;-60
2022/09/27 10:10:46;;;;;;;1.50;1.33;;;9.30;99.90;;;;;;5041628;28;20444;-60
2022/09/27 10:13:17;;;;;;;2.40;1.20;;;9.30;99.90;;;;;;5047672;28;20425;-60
2022/09/27 10:15:49;;;;;;;4.50;1.00;;;9.40;99.90;;;;;;5044310;28;20449;-60
2022/09/27 10:18:18;;;;;;;1.40;1.00;;;9.40;99.90;;;;;;5046384;28;20812;-60
2022/09/27 10:20:57;;;;;;;3.67;1.00;;;9.50;99.90;;;;;;5034856;28;20434;-60
2022/09/27 10:23:24;;;;;;;1.40;1.30;;;9.60;99.90;;;;;;5041582;28;20438;-60
2022/09/27 10:25:56;;;;;;;1.33;1.20;;;9.60;99.90;;;;;;5044672;28;20421;-57
2022/09/27 10:28:42;;;;;;;1.13;1.00;;;9.70;99.90;;;;;;5044220;28;20457;-61
2022/09/27 10:31:19;;;;;;;1.40;1.20;;;9.80;99.90;;;;;;5043834;28;20433;-60
2022/09/27 10:33:54;;;;;;;1.77;1.00;;;10.00;99.90;;;;;;5039571;28;20485;-61
2022/09/27 10:36:31;;;;;;;1.10;1.00;;;10.20;99.90;;;;;;5044162;28;20460;-60
2022/09/27 10:38:59;;;;;;;1.40;1.30;;;10.20;99.90;;;;;;5046354;28;20449;-59
2022/09/27 10:41:35;;;;;;;2.93;1.43;;;10.30;99.90;;;;;;5029613;28;20453;-60
2022/09/27 10:44:16;;;;;;;1.30;1.20;;;10.60;99.90;;;;;;5041078;28;20484;-59
2022/09/27 10:46:58;;;;;;;1.33;1.23;;;10.90;99.90;;;;;;5032415;28;20981;-60
2022/09/27 10:49:44;;;;;;;4.17;1.47;;;11.10;99.90;;;;;;5048549;28;20968;-60
2022/09/27 10:52:23;;;;;;;2.50;1.47;;;11.10;99.90;;;;;;5045340;28;20429;-60
2022/09/27 10:54:55;;;;;;;1.60;1.17;;;11.10;99.90;;;;;;5046649;28;20514;-60
2022/09/27 10:57:23;;;;;;;1.47;1.10;;;11.10;99.90;;;;;;5041929;23;20493;-56
2022/09/27 11:00:16;;;;;;;2.00;1.07;;;11.20;99.90;;;;;;5030121;28;20818;-55
2022/09/27 11:02:41;;;;;;;3.90;1.63;;;11.40;99.90;;;;;;5017455;28;20457;-55
2022/09/27 11:05:30;;;;;;;1.40;1.30;;;11.60;99.90;;;;;;5018527;28;20627;-57
2022/09/27 11:07:58;;;;;;;1.33;1.20;;;11.90;99.90;;;;;;5011936;28;20287;-55
2022/09/27 11:10:30;;;;;;;1.20;1.10;;;12.20;99.90;;;;;;5010253;28;20427;-55
2022/09/27 11:13:13;;;;;;;2.00;1.10;;;12.20;97.50;;;;;;5005537;28;20493;-56
2022/09/27 11:16:02;;;;;;;1.20;1.10;;;12.00;96.20;;;;;;5009428;28;21019;-55
2022/09/27 11:18:53;;;;;;;2.60;1.10;;;11.70;96.50;;;;;;5009365;28;20433;-54
2022/09/27 11:21:44;;;;;;;2.33;1.40;;;11.30;99.90;;;;;;5010338;28;20424;-56
2022/09/27 11:24:47;;;;;;;1.33;1.23;;;11.00;99.90;;;;;;5011980;28;20439;-55
2022/09/27 11:27:37;;;;;;;1.43;1.33;;;10.80;99.90;;;;;;5011688;28;20509;-54
2022/09/27 11:30:12;;;;;;;1.23;1.13;;;10.70;99.90;;;;;;5003854;28;20868;-55
2022/09/27 11:33:09;;;;;;;1.50;1.40;;;10.80;99.90;;;;;;5011367;28;20414;-54
2022/09/27 11:35:58;;;;;;;1.97;1.17;;;11.00;99.90;;;;;;4986978;28;20475;-55
2022/09/27 11:39:00;;;;;;;2.90;1.20;;;11.20;99.90;;;;;;5007851;28;20451;-56
2022/09/27 11:41:54;;;;;;;1.40;1.30;;;11.50;99.90;;;;;;4963990;28;20469;-57
2022/09/27 11:44:31;;;;;;;1.43;1.00;;;11.40;99.90;;;;;;5007929;28;21317;-54
2022/09/27 11:47:07;;;;;;;1.50;1.10;;;11.30;99.90;;;;;;5006237;28;20463;-56
2022/09/27 11:49:38;;;;;;;1.20;1.00;;;11.20;99.90;;;;;;5001521;28;20430;-55
2022/09/27 11:52:44;;;;;;;1.10;1.00;;;11.10;99.90;;;;;;5004182;28;20632;-55
2022/09/27 11:55:21;;;;;;;1.90;1.07;;;11.00;97.30;;;;;;5004829;28;20839;-55
2022/09/27 11:58:16;;;;;;;2.90;2.40;;;10.90;99.70;;;;;;5002121;28;20471;-57
2022/09/27 12:01:18;;;;;;;1.43;1.23;;;10.90;99.90;;;;;;5002708;28;20462;-57
2022/09/27 12:03:53;;;;;;;1.10;1.10;;;10.90;99.90;;;;;;5006527;28;20434;-53
2022/09/27 12:06:37;;;;;;;5.13;1.00;;;11.00;99.90;;;;;;5008755;28;20525;-56
2022/09/27 12:09:12;;;;;;;2.07;1.30;;;11.10;99.90;;;;;;5009325;28;20517;-56
2022/09/27 12:11:54;;;;;;;2.10;1.50;;;11.20;99.90;;;;;;5003874;28;20438;-56
2022/09/27 12:14:29;;;;;;;2.63;1.00;;;11.20;95.50;;;;;;5005535;28;20983;-54
2022/09/27 12:16:56;;;;;;;1.43;1.33;;;11.10;93.70;;;;;;5006091;28;20827;-56
2022/09/27 12:19:27;;;;;;;1.60;1.10;;;11.10;95.20;;;;;;5005760;28;20953;-55
2022/09/27 12:21:56;;;;;;;2.53;1.20;;;11.10;95.10;;;;;;5004237;28;20876;-54
2022/09/27 12:24:22;;;;;;;2.80;1.20;;;11.10;94.80;;;;;;5007569;28;20949;-55
2022/09/27 12:27:08;;;;;;;1.17;1.10;;;11.10;99.40;;;;;;5005092;28;20459;-56
2022/09/27 12:29:38;;;;;;;1.20;1.10;;;11.30;96.90;;;;;;5002611;28;20435;-58
2022/09/27 12:32:14;;;;;;;1.33;1.00;;;11.40;92.10;;;;;;4998535;28;20494;-55
2022/09/27 12:35:12;;;;;;;1.27;1.00;;;11.40;87.10;;;;;;5006233;28;20427;-57
2022/09/27 12:37:45;;;;;;;4.10;1.27;;;11.40;87.10;;;;;;5010118;28;20542;-57
2022/09/27 12:40:33;;;;;;;6.53;1.03;;;11.40;91.70;;;;;;5007484;28;20751;-58
2022/09/27 12:43:17;;;;;;;2.93;1.20;;;11.50;90.80;;;;;;5003162;28;20849;-58
2022/09/27 12:46:12;;;;;;;1.20;1.10;;;11.60;91.30;;;;;;4998836;28;20438;-57
2022/09/27 12:49:03;;;;;;;0.90;0.90;;;11.70;92.10;;;;;;5010711;28;20945;-58
2022/09/27 12:51:35;;;;;;;1.37;1.20;;;11.60;93.30;;;;;;5004566;28;20439;-58
2022/09/27 12:54:07;;;;;;;1.13;1.03;;;11.50;94.90;;;;;;5005791;28;20430;-59
2022/09/27 12:56:45;;;;;;;3.23;1.20;;;11.30;95.20;;;;;;4985503;28;20455;-58
2022/09/27 12:59:27;;;;;;;2.90;1.10;;;11.10;97.60;;;;;;5003334;28;20438;-58
2022/09/27 13:02:11;;;;;;;1.33;1.23;;;10.80;99.90;;;;;;5004057;28;20420;-57
2022/09/27 13:05:02;;;;;;;4.70;1.10;;;11.10;99.90;;;;;;5007209;28;20794;-58
2022/09/27 13:07:54;;;;;;;1.53;0.90;;;11.60;99.90;;;;;;5001725;28;20459;-58
2022/09/27 13:10:52;;;;;;;2.23;1.20;;;11.80;99.90;;;;;;5004317;28;20470;-56
2022/09/27 13:13:21;;;;;;;1.40;1.10;;;11.90;99.90;;;;;;5006543;28;20514;-56
2022/09/27 13:15:48;;;;;;;1.93;0.90;;;11.70;99.90;;;;;;5006663;28;20435;-58
2022/09/27 13:18:34;;;;;;;1.33;0.93;;;11.50;99.90;;;;;;5004527;28;20494;-55
2022/09/27 13:21:04;;;;;;;2.13;1.20;;;11.80;99.90;;;;;;5008955;28;20774;-56
2022/09/27 13:23:30;;;;;;;4.40;1.37;;;12.10;99.70;;;;;;5002786;28;20512;-55
2022/09/27 13:26:01;;;;;;;1.30;1.20;;;12.50;99.90;;;;;;5005988;28;20427;-54
2022/09/27 13:28:37;;;;;;;1.27;1.13;;;12.60;95.70;;;;;;5008605;28;20462;-53
2022/09/27 13:31:10;;;;;;;2.00;1.23;;;12.60;98.90;;;;;;4996061;28;21060;-52
2022/09/27 13:33:42;;;;;;;2.60;1.53;;;12.50;97.50;;;;;;5005315;28;20433;-50
2022/09/27 13:36:23;;;;;;;1.70;1.30;;;12.50;98.80;;;;;;5002925;28;20471;-53